Time;durP1;ratioP1;P1;durP2;ratioP2;P2;SDS_P1;SDS_P2;PMS_P1;PMS_P2;Temp;Humidity;BMP_temperature;BMP_pressure;BME280_temperature;BME280_humidity;BME280_pressure;Samples;Min_cycle;Max_cycle;Signal;HPM_P1;HPM_P2
2022/08/06 00:01:29;;;;;;;5.07;1.17;;;;;;;15.83;80.99;101498.16;8328763;28;20557;-53
2022/08/06 00:05:29;;;;;;;3.33;1.30;;;;;;;15.63;82.02;101490.06;8328032;28;20512;-49
2022/08/06 00:09:30;;;;;;;4.72;1.25;;;;;;;15.53;82.45;101494.66;8326719;28;20399;-53
2022/08/06 00:13:30;;;;;;;6.85;1.35;;;;;;;15.48;83.07;101494.25;8327025;28;20033;-51
2022/08/06 00:17:31;;;;;;;7.20;1.95;;;;;;;15.51;82.40;101495.81;8326652;28;20040;-52
2022/08/06 00:21:31;;;;;;;20.73;1.23;;;;;;;15.46;82.42;101485.38;8327893;28;20536;-53
2022/08/06 00:25:32;;;;;;;5.18;1.45;;;;;;;15.08;83.62;101499.06;8326419;28;20037;-51
2022/08/06 00:29:32;;;;;;;7.40;1.55;;;;;;;14.96;84.80;101502.06;8327724;28;20040;-49
2022/08/06 00:33:33;;;;;;;8.38;1.67;;;;;;;14.75;86.27;101507.66;8319197;28;20573;-51
2022/08/06 00:37:34;;;;;;;12.10;2.08;;;;;;;14.59;87.16;101501.94;8322618;28;20117;-49
2022/08/06 00:41:35;;;;;;;9.57;1.55;;;;;;;14.71;86.39;101508.97;8327044;28;20494;-52
2022/08/06 00:45:36;;;;;;;4.90;1.08;;;;;;;14.63;86.45;101508.81;8327108;28;20549;-53
2022/08/06 00:49:36;;;;;;;9.80;1.60;;;;;;;14.55;86.93;101508.66;8326692;28;20552;-49
2022/08/06 00:53:36;;;;;;;7.88;2.08;;;;;;;14.59;87.15;101507.38;8327034;28;20207;-53
2022/08/06 00:57:37;;;;;;;6.47;1.40;;;;;;;14.54;87.62;101504.22;8327047;28;20448;-50
2022/08/06 01:01:37;;;;;;;11.80;2.45;;;;;;;14.74;85.80;101511.41;8326480;28;20116;-53
2022/08/06 01:05:38;;;;;;;4.60;1.70;;;;;;;14.83;85.61;101504.22;8321926;28;20042;-50
2022/08/06 01:09:38;;;;;;;5.75;1.40;;;;;;;14.78;84.90;101510.09;8321199;28;20041;-53
2022/08/06 01:13:40;;;;;;;5.07;1.23;;;;;;;14.88;84.75;101521.84;8325289;28;20038;-50
2022/08/06 01:17:51;;;;;;;6.03;1.50;;;;;;;14.76;85.65;101514.81;8322902;28;20036;-51
2022/08/06 01:22:31;;;;;;;6.63;1.38;;;;;;;14.78;84.88;101523.72;8318030;28;20231;-53
2022/08/06 01:26:38;;;;;;;7.60;1.63;;;;;;;14.74;85.28;101527.75;8318448;28;20557;-53
2022/08/06 01:30:47;;;;;;;6.68;1.55;;;;;;;14.75;86.28;101532.16;8326089;28;20064;-51
2022/08/06 01:34:52;;;;;;;7.75;1.77;;;;;;;14.23;88.96;101527.09;8319828;28;20033;-51
2022/08/06 01:38:56;;;;;;;8.20;1.60;;;;;;;13.86;90.66;101544.97;8289951;28;20041;-54
2022/08/06 01:42:58;;;;;;;6.97;1.73;;;;;;;13.97;90.71;101557.59;8308041;28;20506;-51
2022/08/06 01:47:03;;;;;;;8.68;2.15;;;;;;;14.04;90.14;101543.31;8324084;28;20065;-52
2022/08/06 01:51:07;;;;;;;10.68;2.30;;;;;;;14.13;89.81;101552.50;8323707;28;20029;-52
2022/08/06 01:55:12;;;;;;;8.43;1.83;;;;;;;14.10;90.15;101552.78;8325421;28;20029;-50
2022/08/06 01:59:16;;;;;;;7.40;1.60;;;;;;;13.88;91.25;101558.41;8324688;28;20080;-53
2022/08/06 02:03:24;;;;;;;8.93;2.33;;;;;;;13.62;92.61;101555.28;8324972;28;20580;-51
2022/08/06 02:07:30;;;;;;;6.78;1.63;;;;;;;13.43;94.67;101564.19;8323491;28;20449;-50
2022/08/06 02:11:34;;;;;;;13.73;2.38;;;;;;;13.28;95.51;101559.22;8318512;28;20048;-53
2022/08/06 02:15:37;;;;;;;4.63;2.75;;;;;;;13.09;96.05;101569.94;8322143;28;20026;-50
2022/08/06 02:19:43;;;;;;;12.43;2.47;;;;;;;12.98;96.56;101575.38;8318916;28;20328;-50
2022/08/06 02:23:44;;;;;;;5.97;1.75;;;;;;;13.09;95.95;101564.50;8322589;28;20132;-52
2022/08/06 02:27:49;;;;;;;9.05;2.30;;;;;;;12.98;96.11;101572.66;8324393;28;20450;-51
2022/08/06 02:31:49;;;;;;;;;;;;;;;12.81;97.11;101584.09;8324515;28;20033;-53
2022/08/06 02:35:57;;;;;;;8.85;1.98;;;;;;;12.57;98.59;101583.44;8324345;28;19920;-50
2022/08/06 02:40:07;;;;;;;12.77;2.20;;;;;;;12.24;100.00;101580.78;8325909;28;20029;-53
2022/08/06 02:44:16;;;;;;;8.45;2.30;;;;;;;12.26;100.00;101581.53;8321092;28;20053;-53
2022/08/06 02:48:27;;;;;;;8.50;2.17;;;;;;;12.50;99.40;101576.78;8322766;28;20038;-53
2022/08/06 02:52:41;;;;;;;8.45;2.17;;;;;;;12.77;98.32;101574.47;8322401;28;20041;-53
2022/08/06 02:56:45;;;;;;;6.35;1.73;;;;;;;12.73;95.70;101583.88;8323631;28;20108;-53
2022/08/06 03:00:51;;;;;;;5.33;2.07;;;;;;;12.52;96.56;101586.53;8322566;28;20542;-52
2022/08/06 03:04:54;;;;;;;11.48;1.88;;;;;;;12.37;97.74;101582.34;8316023;28;20064;-50
2022/08/06 03:08:56;;;;;;;11.50;2.47;;;;;;;12.17;98.31;101595.81;8318668;28;20409;-53
2022/08/06 03:12:58;;;;;;;9.70;2.60;;;;;;;11.66;100.00;101590.91;8321505;28;20037;-51
2022/08/06 03:16:59;;;;;;;8.02;2.20;;;;;;;11.72;100.00;101590.38;8312459;28;20401;-51
2022/08/06 03:21:02;;;;;;;12.05;2.60;;;;;;;11.64;100.00;101598.28;8322740;28;20128;-53
2022/08/06 03:25:06;;;;;;;13.35;2.53;;;;;;;11.50;100.00;101598.44;8318719;28;20033;-49
2022/08/06 03:29:08;;;;;;;10.68;2.78;;;;;;;11.43;100.00;101597.22;8330218;28;20045;-52
2022/08/06 03:33:13;;;;;;;5.68;2.58;;;;;;;11.62;100.00;101594.81;8327397;28;20052;-51
2022/08/06 03:37:18;;;;;;;5.70;2.58;;;;;;;11.86;100.00;101601.00;8328096;28;20065;-47
2022/08/06 03:41:18;;;;;;;;;;;;;;;11.87;100.00;101599.16;8324468;28;20045;-47
2022/08/06 03:45:19;;;;;;;8.38;2.55;;;;;;;11.80;100.00;101596.06;8320475;28;19921;-47
2022/08/06 03:49:25;;;;;;;6.28;2.40;;;;;;;11.77;100.00;101601.72;8328389;28;20026;-48
2022/08/06 03:53:27;;;;;;;11.20;2.85;;;;;;;11.90;100.00;101605.19;8318678;28;20042;-47
2022/08/06 03:57:34;;;;;;;9.82;2.83;;;;;;;11.93;100.00;101597.78;8327852;28;20045;-50
2022/08/06 04:01:37;;;;;;;9.20;2.78;;;;;;;11.89;100.00;101608.00;8328452;28;20513;-48
2022/08/06 04:05:37;;;;;;;5.60;2.92;;;;;;;11.71;100.00;101615.75;8327594;28;20038;-49
2022/08/06 04:09:38;;;;;;;7.05;3.03;;;;;;;11.63;100.00;101618.22;8328457;28;20036;-47
2022/08/06 04:13:40;;;;;;;8.35;3.08;;;;;;;11.68;100.00;101620.53;8327546;28;20034;-47
2022/08/06 04:17:44;;;;;;;11.57;3.60;;;;;;;11.51;100.00;101623.69;8323017;28;20055;-47
2022/08/06 04:21:46;;;;;;;11.73;3.40;;;;;;;11.61;100.00;101627.41;8328436;28;20065;-47
2022/08/06 04:25:51;;;;;;;16.77;3.22;;;;;;;11.66;100.00;101630.66;8328162;28;20771;-49
2022/08/06 04:29:55;;;;;;;5.63;2.63;;;;;;;11.75;100.00;101638.06;8325582;28;20104;-48
2022/08/06 04:33:58;;;;;;;7.10;3.58;;;;;;;11.83;100.00;101644.59;8326153;28;20480;-49
2022/08/06 04:38:00;;;;;;;13.35;4.00;;;;;;;12.01;100.00;101639.56;8327257;28;20030;-47
2022/08/06 04:42:01;;;;;;;8.95;3.10;;;;;;;12.18;100.00;101649.06;8318966;28;20052;-46
2022/08/06 04:46:02;;;;;;;8.00;2.75;;;;;;;12.30;100.00;101646.22;8319405;28;20394;-47
2022/08/06 04:50:03;;;;;;;8.52;2.90;;;;;;;12.60;98.89;101648.28;8325696;28;20051;-48
2022/08/06 04:54:05;;;;;;;5.68;2.55;;;;;;;12.77;99.60;101661.31;8327381;28;20038;-47
2022/08/06 04:58:08;;;;;;;11.10;2.72;;;;;;;12.83;94.43;101666.22;8326288;28;20075;-47
2022/08/06 05:02:09;;;;;;;5.65;2.10;;;;;;;12.91;95.29;101669.19;8325033;28;20067;-46
2022/08/06 05:06:48;;;;;;;7.68;2.60;;;;;;;13.12;94.45;101667.44;8321169;28;20490;-46
2022/08/06 05:10:54;;;;;;;11.68;3.03;;;;;;;13.28;93.97;101673.28;8320677;28;20452;-46
2022/08/06 05:15:05;;;;;;;6.85;2.80;;;;;;;13.27;95.28;101685.16;8325469;28;20460;-46
2022/08/06 05:19:11;;;;;;;9.15;3.05;;;;;;;13.64;94.64;101684.56;8326161;28;20042;-47
2022/08/06 05:23:17;;;;;;;6.88;2.47;;;;;;;13.80;92.47;101686.84;8325647;28;20045;-46
2022/08/06 05:27:18;;;;;;;16.92;3.30;;;;;;;14.07;94.15;101689.88;8320041;28;20433;-48
2022/08/06 05:31:36;;;;;;;7.82;3.22;;;;;;;14.46;93.80;101697.28;8313799;28;20064;-50
2022/08/06 05:35:36;;;;;;;11.75;3.22;;;;;;;14.74;92.33;101691.09;8318031;28;20044;-47
2022/08/06 05:39:37;;;;;;;7.07;3.15;;;;;;;14.99;91.13;101690.56;8317528;28;20037;-47
2022/08/06 05:43:38;;;;;;;7.47;2.70;;;;;;;15.35;90.38;101695.34;8321404;28;20049;-49
2022/08/06 05:47:43;;;;;;;13.13;2.97;;;;;;;15.25;91.38;101686.28;8319846;28;20393;-47
2022/08/06 05:52:23;;;;;;;6.97;3.40;;;;;;;15.63;90.52;101702.69;8323399;28;20490;-47
2022/08/06 05:56:29;;;;;;;9.40;2.70;;;;;;;15.93;88.92;101706.25;8322972;28;20405;-46
2022/08/06 06:00:32;;;;;;;14.60;4.10;;;;;;;16.02;85.93;101708.09;8324565;28;20037;-47
2022/08/06 06:04:33;;;;;;;12.32;2.75;;;;;;;16.27;84.60;101707.47;8322101;28;20030;-49
2022/08/06 06:08:36;;;;;;;11.20;3.63;;;;;;;16.38;84.82;101707.28;8324073;28;20117;-46
2022/08/06 06:12:37;;;;;;;10.73;3.38;;;;;;;16.64;84.89;101711.97;8324861;28;20037;-47
2022/08/06 06:17:04;;;;;;;10.32;2.75;;;;;;;16.91;84.35;101711.09;8323188;28;20068;-46
2022/08/06 06:25:26;;;;;;;8.50;2.78;;;;;;;17.41;80.93;101715.06;8394854;27;20458;-50
2022/08/06 06:34:08;;;;;;;12.00;3.10;;;;;;;17.71;79.52;101714.72;8288095;27;20493;-46
2022/08/06 06:38:28;;;;;;;;;;;;;;;17.91;78.11;101727.22;8286264;28;20046;-47
2022/08/06 06:42:52;;;;;;;13.82;3.45;;;;;;;18.29;77.88;101721.34;8279867;28;19917;-47
2022/08/06 06:46:56;;;;;;;;;;;;;;;18.61;78.58;101727.06;8283571;28;20034;-47
2022/08/06 06:51:02;;;;;;;9.55;3.35;;;;;;;18.43;76.53;101726.28;8299586;28;19929;-51
2022/08/06 06:55:24;;;;;;;10.95;3.13;;;;;;;17.96;77.84;101730.31;8286268;28;20046;-50
2022/08/06 06:59:32;;;;;;;12.07;3.22;;;;;;;17.74;78.31;101735.41;8286182;28;20034;-49
2022/08/06 07:03:34;;;;;;;9.88;3.35;;;;;;;17.79;78.71;101736.69;8275900;28;20063;-47
2022/08/06 07:07:38;;;;;;;7.57;2.90;;;;;;;17.98;77.08;101744.72;8284285;28;20061;-48
2022/08/06 07:11:38;;;;;;;8.00;2.88;;;;;;;18.47;76.62;101741.34;8283567;28;20092;-47
2022/08/06 07:15:41;;;;;;;11.63;2.63;;;;;;;18.99;75.56;101748.47;8280780;28;20050;-49
2022/08/06 07:19:42;;;;;;;9.48;2.53;;;;;;;18.78;74.45;101753.50;8279944;28;20126;-48
2022/08/06 07:23:45;;;;;;;11.13;2.60;;;;;;;18.71;75.16;101755.19;8283421;28;20041;-47
2022/08/06 07:27:49;;;;;;;11.40;3.45;;;;;;;18.82;74.70;101757.63;8279163;28;20108;-49
2022/08/06 07:31:50;;;;;;;19.88;3.50;;;;;;;19.23;73.00;101762.28;8276447;28;20168;-47
2022/08/06 07:35:51;;;;;;;8.38;2.67;;;;;;;19.19;72.84;101758.13;8281483;28;20062;-50
2022/08/06 07:39:55;;;;;;;9.25;2.80;;;;;;;19.27;73.16;101752.72;8279456;28;20089;-48
2022/08/06 07:43:58;;;;;;;9.97;2.33;;;;;;;19.15;72.95;101759.50;8270295;28;20049;-47
2022/08/06 07:48:04;;;;;;;9.60;2.38;;;;;;;19.16;72.75;101760.38;8262798;28;20077;-48
2022/08/06 07:52:06;;;;;;;9.73;2.90;;;;;;;19.23;72.84;101762.28;8250483;28;20038;-51
2022/08/06 07:56:09;;;;;;;5.47;1.63;;;;;;;19.43;71.04;101758.25;8248215;28;20046;-50
2022/08/06 08:00:10;;;;;;;7.45;1.88;;;;;;;19.48;70.00;101754.16;8241545;28;20046;-48
2022/08/06 08:08:31;;;;;;;7.68;2.03;;;;;;;19.80;70.25;101755.06;8252041;28;20290;-48
2022/08/06 08:12:33;;;;;;;5.25;1.88;;;;;;;19.69;70.32;101751.78;8248211;28;20050;-49
2022/08/06 08:16:34;;;;;;;8.93;2.53;;;;;;;20.14;70.37;101758.56;8259490;28;20104;-50
2022/08/06 08:20:38;;;;;;;7.03;1.70;;;;;;;20.58;66.95;101759.00;8260541;28;20038;-48
2022/08/06 08:24:40;;;;;;;8.67;1.63;;;;;;;20.27;67.01;101764.38;8250867;28;20057;-51
2022/08/06 08:28:41;;;;;;;8.73;2.03;;;;;;;20.33;68.42;101762.81;8247998;28;20042;-50
2022/08/06 08:32:42;;;;;;;6.95;2.17;;;;;;;20.25;68.06;101760.09;8255056;28;20045;-48
2022/08/06 08:36:43;;;;;;;7.90;2.20;;;;;;;20.15;67.91;101762.13;8250886;28;20065;-48
2022/08/06 08:40:46;;;;;;;9.15;1.40;;;;;;;20.51;66.53;101750.59;8259577;28;20165;-49
2022/08/06 08:44:49;;;;;;;6.30;1.10;;;;;;;20.53;64.71;101753.19;8250961;28;20108;-50
2022/08/06 08:48:50;;;;;;;4.47;1.10;;;;;;;19.89;64.13;101753.19;8241921;28;20179;-49
2022/08/06 08:52:55;;;;;;;5.28;0.80;;;;;;;20.02;62.94;101756.28;8246142;28;20050;-48
2022/08/06 08:56:56;;;;;;;2.08;0.70;;;;;;;20.15;62.00;101762.13;8247266;28;20050;-48
2022/08/06 09:00:56;;;;;;;3.13;1.00;;;;;;;20.97;60.77;101751.69;8249599;28;20117;-49
2022/08/06 09:04:58;;;;;;;6.00;1.23;;;;;;;21.24;60.83;101748.47;8250231;28;20038;-48
2022/08/06 09:09:03;;;;;;;1.70;0.52;;;;;;;20.93;60.24;101761.31;8255588;28;20078;-47
2022/08/06 09:13:04;;;;;;;3.28;0.80;;;;;;;21.35;58.20;101756.34;8256511;28;20038;-47
2022/08/06 09:17:05;;;;;;;4.68;0.70;;;;;;;21.81;56.94;101758.16;8244620;28;20038;-50
2022/08/06 09:21:06;;;;;;;6.65;1.00;;;;;;;22.00;55.21;101757.66;8234936;28;20041;-48
2022/08/06 09:25:35;;;;;;;3.13;0.93;;;;;;;21.86;54.44;101755.69;8238449;28;20042;-49
2022/08/06 09:29:36;;;;;;;3.72;0.93;;;;;;;22.07;54.68;101752.25;8251109;28;20502;-48
2022/08/06 09:33:40;;;;;;;1.90;0.88;;;;;;;22.98;54.68;101756.50;8254663;28;20533;-49
2022/08/06 09:37:40;;;;;;;3.55;0.98;;;;;;;23.23;54.11;101757.06;8250123;28;21708;-49
2022/08/06 09:41:49;;;;;;;4.13;0.82;;;;;;;22.43;54.74;101754.16;8253479;28;20038;-48
2022/08/06 09:45:50;;;;;;;5.40;1.13;;;;;;;22.62;54.96;101761.03;8248357;28;20446;-49
2022/08/06 09:49:50;;;;;;;3.70;1.02;;;;;;;22.61;54.74;101751.94;8247843;28;20093;-51
2022/08/06 09:53:56;;;;;;;2.97;1.10;;;;;;;24.18;52.64;101756.69;8247215;28;20390;-48
2022/08/06 09:57:57;;;;;;;2.83;0.90;;;;;;;22.47;53.58;101755.47;8241357;28;20288;-46
2022/08/06 10:01:57;;;;;;;3.70;1.13;;;;;;;21.45;56.44;101756.09;8249764;28;20232;-47
2022/08/06 10:06:07;;;;;;;3.05;0.90;;;;;;;21.51;56.41;101750.75;8248763;28;20038;-47
2022/08/06 10:10:08;;;;;;;2.25;0.70;;;;;;;24.52;49.50;101746.53;8247534;28;20471;-47
2022/08/06 10:14:30;;;;;;;2.45;0.50;;;;;;;26.09;44.94;101750.94;8239348;28;20042;-51
2022/08/06 10:22:53;;;;;;;4.57;0.52;;;;;;;27.01;43.25;101748.97;8334982;27;20409;-47
2022/08/06 10:26:55;;;;;;;1.42;0.40;;;;;;;27.13;43.90;101751.91;8330401;28;20116;-49
2022/08/06 10:30:56;;;;;;;3.50;0.30;;;;;;;26.68;43.00;101760.13;8337292;28;20045;-48
2022/08/06 10:35:02;;;;;;;1.60;0.30;;;;;;;28.21;42.73;101758.22;8325816;28;20041;-47
2022/08/06 10:39:04;;;;;;;2.38;0.30;;;;;;;28.52;41.53;101758.19;8320689;28;20080;-47
2022/08/06 10:43:06;;;;;;;1.52;0.30;;;;;;;28.43;40.43;101754.84;8318664;28;20049;-48
2022/08/06 10:47:07;;;;;;;0.93;0.32;;;;;;;25.37;43.42;101741.56;8332545;28;20044;-51
2022/08/06 10:51:10;;;;;;;2.95;0.30;;;;;;;24.80;44.51;101752.09;8322962;28;20056;-47
2022/08/06 10:55:10;;;;;;;0.32;0.20;;;;;;;27.01;42.27;101737.03;8320693;28;20050;-48
2022/08/06 10:59:14;;;;;;;1.65;0.28;;;;;;;27.84;40.31;101739.63;8329085;28;20528;-48
2022/08/06 11:03:22;;;;;;;1.93;0.40;;;;;;;28.10;40.72;101733.91;8317861;28;20044;-49
2022/08/06 11:07:50;;;;;;;0.50;0.20;;;;;;;30.11;38.99;101724.28;8326713;28;20636;-48
2022/08/06 11:12:07;;;;;;;1.15;0.20;;;;;;;29.72;38.60;101717.38;8379527;28;20497;-48
2022/08/06 11:16:21;;;;;;;4.57;0.57;;;;;;;29.46;38.63;101723.28;8356806;28;20041;-49
2022/08/06 11:20:41;;;;;;;2.22;0.30;;;;;;;28.44;39.45;101725.06;8351497;28;20079;-48
2022/08/06 11:24:51;;;;;;;3.20;0.32;;;;;;;25.56;42.29;101728.84;8357557;28;20045;-48
2022/08/06 11:33:09;;;;;;;1.08;0.30;;;;;;;26.35;42.34;101709.34;8266568;28;20783;-48
2022/08/06 11:37:10;;;;;;;2.58;0.30;;;;;;;28.59;40.46;101711.66;8245763;28;20038;-50
2022/08/06 11:41:17;;;;;;;2.05;0.55;;;;;;;28.50;40.98;101708.34;8242194;28;20054;-48
2022/08/06 11:45:18;;;;;;;0.80;0.30;;;;;;;27.45;42.16;101712.06;8246502;28;20034;-49
2022/08/06 11:49:22;;;;;;;1.60;0.30;;;;;;;24.15;46.50;101721.16;8246451;28;20050;-49
2022/08/06 11:53:38;;;;;;;2.30;0.40;;;;;;;23.09;47.50;101720.16;8235957;28;20097;-51
2022/08/06 11:57:40;;;;;;;2.20;0.20;;;;;;;24.63;44.83;101709.19;8235592;28;20066;-50
2022/08/06 12:01:48;;;;;;;0.57;0.20;;;;;;;27.53;40.29;101707.09;8242877;28;20502;-49
2022/08/06 12:05:49;;;;;;;2.50;0.57;;;;;;;27.96;39.32;101698.94;8236078;28;20715;-50
2022/08/06 12:10:07;;;;;;;3.65;0.35;;;;;;;25.25;44.20;101698.88;8238304;28;20060;-48
2022/08/06 12:14:42;;;;;;;0.85;0.30;;;;;;;23.45;46.18;101695.34;8241393;28;20050;-49
2022/08/06 12:18:43;;;;;;;0.25;0.20;;;;;;;23.13;46.31;101700.25;8235754;28;20054;-48
2022/08/06 12:22:48;;;;;;;4.47;0.60;;;;;;;22.75;46.66;101704.19;8240770;28;20093;-48
2022/08/06 12:26:48;;;;;;;2.92;0.40;;;;;;;22.73;46.70;101687.00;8243484;28;20538;-48
2022/08/06 12:30:52;;;;;;;1.00;0.20;;;;;;;23.26;45.72;101679.44;8249547;28;20506;-47
2022/08/06 12:34:55;;;;;;;0.70;0.30;;;;;;;23.25;46.66;101678.56;8214160;28;20093;-48
2022/08/06 12:38:58;;;;;;;1.92;0.30;;;;;;;23.18;45.62;101677.59;8242160;28;20121;-48
2022/08/06 12:43:04;;;;;;;2.70;0.30;;;;;;;23.23;47.22;101674.25;8220320;28;20042;-48
2022/08/06 12:47:12;;;;;;;0.57;0.40;;;;;;;23.16;46.70;101680.56;8234732;28;20135;-48
2022/08/06 12:51:13;;;;;;;0.88;0.30;;;;;;;23.42;47.01;101671.72;8216070;28;20049;-48
2022/08/06 12:55:17;;;;;;;1.48;0.28;;;;;;;22.92;45.62;101672.59;8218764;28;20148;-47
2022/08/06 12:59:19;;;;;;;0.95;0.25;;;;;;;23.10;46.49;101670.28;8225664;28;20397;-49
2022/08/06 13:03:23;;;;;;;3.03;0.40;;;;;;;23.34;46.52;101643.41;8223372;28;20046;-48
2022/08/06 13:07:24;;;;;;;1.45;0.38;;;;;;;23.28;47.52;101666.28;8224351;28;20121;-52
2022/08/06 13:11:30;;;;;;;3.08;0.40;;;;;;;22.97;47.83;101653.56;8219580;28;20047;-49
2022/08/06 13:15:32;;;;;;;1.73;0.45;;;;;;;23.04;46.83;101657.28;8221447;28;20501;-50
2022/08/06 13:19:32;;;;;;;0.60;0.20;;;;;;;22.70;46.60;101651.53;8216629;28;20646;-50
2022/08/06 13:23:35;;;;;;;1.42;0.43;;;;;;;22.80;45.89;101657.59;8202502;28;20452;-49
2022/08/06 13:27:36;;;;;;;2.13;0.20;;;;;;;22.74;46.07;101640.94;8205672;28;20613;-49
2022/08/06 13:31:40;;;;;;;1.85;0.20;;;;;;;23.03;46.14;101636.22;8199887;28;20747;-52
2022/08/06 13:35:41;;;;;;;1.35;0.30;;;;;;;23.57;45.68;101644.91;8206596;28;20043;-49
2022/08/06 13:39:51;;;;;;;0.82;0.30;;;;;;;23.12;45.88;101634.22;8205067;28;20820;-51
2022/08/06 13:43:53;;;;;;;2.15;0.50;;;;;;;23.21;45.73;101633.06;8196847;28;20047;-49
2022/08/06 13:48:06;;;;;;;1.80;0.30;;;;;;;23.06;46.18;101627.56;8217186;28;20077;-49
2022/08/06 13:52:07;;;;;;;1.13;0.20;;;;;;;23.40;46.27;101621.41;8211091;28;20070;-49
2022/08/06 13:56:07;;;;;;;1.63;0.30;;;;;;;23.48;45.33;101617.66;8217178;28;20422;-50
2022/08/06 14:00:08;;;;;;;3.20;0.63;;;;;;;23.17;44.93;101610.50;8218986;28;20067;-47
2022/08/06 14:04:11;;;;;;;0.55;0.30;;;;;;;23.18;44.25;101612.22;8217652;28;20034;-52
2022/08/06 14:08:11;;;;;;;0.75;0.30;;;;;;;23.21;44.60;101611.81;8220044;28;20039;-50
2022/08/06 14:12:12;;;;;;;0.77;0.30;;;;;;;23.11;45.27;101604.91;8218959;28;20050;-51
2022/08/06 14:16:13;;;;;;;0.97;0.30;;;;;;;23.30;46.06;101595.19;8216583;28;20042;-48
2022/08/06 14:20:13;;;;;;;1.55;0.35;;;;;;;23.59;45.51;101595.00;8212157;28;20283;-48
2022/08/06 14:24:14;;;;;;;2.40;0.40;;;;;;;23.61;46.03;101606.72;8216675;28;20076;-51
2022/08/06 14:28:16;;;;;;;1.42;0.30;;;;;;;23.04;45.30;101604.00;8218582;28;20290;-50
2022/08/06 14:32:17;;;;;;;0.43;0.22;;;;;;;22.73;46.24;101597.88;8215844;28;20046;-49
2022/08/06 14:36:17;;;;;;;2.47;0.35;;;;;;;22.77;46.16;101597.31;8220298;28;20034;-51
2022/08/06 14:44:54;;;;;;;1.48;0.38;;;;;;;22.97;45.61;101592.03;8219456;28;20049;-50
2022/08/06 14:48:55;;;;;;;1.85;0.50;;;;;;;22.95;45.68;101594.13;8219127;28;20042;-47
2022/08/06 14:52:55;;;;;;;1.00;0.40;;;;;;;23.38;45.08;101583.97;8207456;28;20039;-48
2022/08/06 14:56:55;;;;;;;1.00;0.30;;;;;;;23.33;45.39;101586.50;8219622;28;20406;-48
2022/08/06 15:00:56;;;;;;;1.90;0.40;;;;;;;23.54;46.23;101573.53;8215548;28;20296;-48
2022/08/06 15:04:58;;;;;;;0.68;0.32;;;;;;;23.81;45.22;101580.09;8218748;28;20289;-50
2022/08/06 15:08:58;;;;;;;1.02;0.38;;;;;;;23.33;46.23;101572.69;8219271;28;20039;-49
2022/08/06 15:12:59;;;;;;;3.05;0.30;;;;;;;23.41;45.60;101572.53;8218037;28;20499;-50
2022/08/06 15:16:59;;;;;;;2.08;0.50;;;;;;;23.12;46.64;101574.34;8211954;28;20046;-48
2022/08/06 15:21:01;;;;;;;0.47;0.30;;;;;;;23.23;46.10;101569.38;8216500;28;20105;-49
2022/08/06 15:25:02;;;;;;;2.83;0.47;;;;;;;23.18;46.06;101562.53;8217705;28;20133;-50
2022/08/06 15:29:03;;;;;;;1.02;0.30;;;;;;;23.32;46.09;101568.25;8224017;28;20156;-48
2022/08/06 15:33:04;;;;;;;2.65;0.30;;;;;;;23.51;46.74;101551.00;8220266;28;20047;-49
2022/08/06 15:37:05;;;;;;;0.85;0.60;;;;;;;23.74;46.15;101557.97;8217312;28;20483;-51
2022/08/06 15:41:07;;;;;;;2.40;0.50;;;;;;;23.93;45.62;101550.88;8214591;28;20053;-52
2022/08/06 15:45:08;;;;;;;1.40;0.43;;;;;;;23.79;45.08;101551.84;8214749;28;20064;-49
2022/08/06 15:49:09;;;;;;;1.95;0.40;;;;;;;23.79;45.53;101549.09;8217330;28;20137;-49
2022/08/06 15:53:10;;;;;;;1.37;0.60;;;;;;;23.56;44.91;101542.94;8220079;28;20049;-48
2022/08/06 15:57:10;;;;;;;0.50;0.35;;;;;;;23.51;46.35;101538.03;8222654;28;20860;-50
2022/08/06 16:01:11;;;;;;;1.50;0.30;;;;;;;23.81;46.46;101535.91;8198666;28;20447;-49
2022/08/06 16:05:12;;;;;;;0.82;0.30;;;;;;;23.60;46.36;101538.75;8215145;28;20289;-51
2022/08/06 16:09:13;;;;;;;1.33;0.40;;;;;;;23.48;47.13;101534.81;8215875;28;20202;-48
2022/08/06 16:13:18;;;;;;;0.70;0.30;;;;;;;23.28;47.33;101539.31;8217655;28;20407;-49
2022/08/06 16:17:18;;;;;;;3.50;0.50;;;;;;;22.83;47.52;101537.75;8219098;28;20109;-50
2022/08/06 16:21:19;;;;;;;0.95;0.40;;;;;;;22.73;48.05;101535.31;8221874;28;20043;-48
2022/08/06 16:25:20;;;;;;;2.08;0.35;;;;;;;22.72;47.60;101544.63;8218348;28;20042;-49
2022/08/06 16:29:21;;;;;;;1.50;0.40;;;;;;;23.02;47.47;101540.72;8220586;28;20051;-49
2022/08/06 16:33:21;;;;;;;1.52;0.52;;;;;;;23.03;46.94;101536.06;8220675;28;20047;-50
2022/08/06 16:37:21;;;;;;;2.00;0.40;;;;;;;23.06;47.11;101536.50;8219552;28;20704;-49
2022/08/06 16:41:22;;;;;;;1.08;0.40;;;;;;;22.92;47.33;101534.69;8219885;28;20271;-49
2022/08/06 16:45:24;;;;;;;3.15;0.82;;;;;;;22.91;47.18;101524.69;8223810;28;20055;-49
2022/08/06 16:49:25;;;;;;;2.72;0.30;;;;;;;23.01;46.69;101525.22;8218082;28;20066;-50
2022/08/06 16:53:25;;;;;;;2.60;0.28;;;;;;;23.03;46.92;101520.34;8223038;28;20047;-51
2022/08/06 16:57:25;;;;;;;1.37;0.30;;;;;;;23.07;47.35;101521.69;8223815;28;20521;-48
2022/08/06 17:01:26;;;;;;;3.23;0.60;;;;;;;23.08;47.44;101517.88;8220812;28;20305;-49
2022/08/06 17:05:26;;;;;;;0.80;0.40;;;;;;;23.15;46.93;101517.94;8224410;28;20282;-49
2022/08/06 17:09:27;;;;;;;4.70;0.52;;;;;;;23.15;47.17;101518.78;8221447;28;20047;-49
2022/08/06 17:13:28;;;;;;;1.67;0.43;;;;;;;22.97;47.55;101521.13;8211112;28;20055;-48
2022/08/06 17:17:29;;;;;;;0.40;0.30;;;;;;;22.99;45.84;101513.53;8215372;28;20545;-51
2022/08/06 17:21:30;;;;;;;0.82;0.43;;;;;;;23.01;45.16;101518.84;8219081;28;20393;-48
2022/08/06 17:25:30;;;;;;;3.63;0.77;;;;;;;22.95;45.65;101512.22;8217755;28;20104;-52
2022/08/06 17:29:31;;;;;;;2.10;0.60;;;;;;;22.80;46.68;101514.19;8222821;28;20297;-49
2022/08/06 17:33:31;;;;;;;1.33;0.28;;;;;;;22.61;47.45;101520.34;8219585;28;20225;-47
2022/08/06 17:37:32;;;;;;;3.10;0.40;;;;;;;22.56;48.11;101510.91;8217613;28;20043;-46
2022/08/06 17:41:32;;;;;;;0.95;0.35;;;;;;;22.52;48.38;101515.97;8215638;28;20050;-47
2022/08/06 17:45:33;;;;;;;1.60;0.50;;;;;;;22.41;48.99;101515.56;8219717;28;20105;-49
2022/08/06 17:49:36;;;;;;;1.10;0.40;;;;;;;22.26;49.61;101521.09;8216501;28;20051;-49
2022/08/06 17:53:37;;;;;;;0.57;0.22;;;;;;;22.16;50.08;101515.06;8210232;28;20041;-47
2022/08/06 17:57:38;;;;;;;1.08;0.50;;;;;;;22.13;50.33;101520.06;8224663;28;20065;-48
2022/08/06 18:01:39;;;;;;;0.93;0.30;;;;;;;22.07;49.40;101521.69;8222543;28;20039;-50
2022/08/06 18:05:40;;;;;;;2.20;0.50;;;;;;;22.05;48.98;101510.00;8218768;28;20426;-48
2022/08/06 18:09:42;;;;;;;6.22;0.50;;;;;;;22.08;49.30;101506.88;8219955;28;20035;-47
2022/08/06 18:13:42;;;;;;;1.00;0.50;;;;;;;22.01;49.30;101510.59;8221637;28;20082;-48
2022/08/06 18:17:43;;;;;;;2.60;0.50;;;;;;;22.01;49.65;101516.09;8218591;28;20130;-48
2022/08/06 18:21:43;;;;;;;2.13;0.40;;;;;;;22.00;49.78;101528.16;8219087;28;20039;-48
2022/08/06 18:25:44;;;;;;;0.45;0.32;;;;;;;21.93;49.69;101528.09;8219326;28;20043;-49
2022/08/06 18:29:44;;;;;;;1.65;0.43;;;;;;;21.86;49.70;101524.34;8225229;28;20047;-49
2022/08/06 18:33:44;;;;;;;1.73;0.37;;;;;;;21.83;49.41;101524.72;8219842;28;20046;-48
2022/08/06 18:37:45;;;;;;;2.38;0.47;;;;;;;21.75;49.41;101524.84;8221262;28;20814;-47
2022/08/06 18:41:46;;;;;;;0.82;0.40;;;;;;;21.67;49.76;101522.13;8215159;28;20062;-47
2022/08/06 18:45:46;;;;;;;0.90;0.40;;;;;;;21.55;49.58;101526.38;8219824;28;20222;-48
2022/08/06 18:49:47;;;;;;;5.68;0.40;;;;;;;21.44;50.13;101518.59;8221295;28;20314;-47
2022/08/06 18:53:47;;;;;;;0.63;0.40;;;;;;;21.31;50.99;101518.34;8219723;28;20038;-47
2022/08/06 18:57:48;;;;;;;1.05;0.40;;;;;;;21.22;51.43;101524.97;8219185;28;20517;-48
2022/08/06 19:01:48;;;;;;;0.88;0.50;;;;;;;21.10;52.01;101537.44;8219796;28;20037;-47
2022/08/06 19:05:49;;;;;;;1.50;0.45;;;;;;;20.90;52.70;101536.19;8218618;28;20126;-48
2022/08/06 19:09:49;;;;;;;1.50;0.40;;;;;;;20.74;53.40;101536.31;8217401;28;20127;-51
2022/08/06 19:13:50;;;;;;;0.93;0.40;;;;;;;20.48;53.78;101541.25;8215298;28;20071;-50
2022/08/06 19:17:51;;;;;;;1.45;0.65;;;;;;;20.34;54.47;101533.78;8214154;28;20521;-48